Time;durP1;ratioP1;P1;durP2;ratioP2;P2;SDS_P1;SDS_P2;PMS_P1;PMS_P2;Temp;Humidity;BMP_temperature;BMP_pressure;BME280_temperature;BME280_humidity;BME280_pressure;Samples;Min_cycle;Max_cycle;Signal;HPM_P1;HPM_P2
2022/04/09 00:01:22;;;;;;;4.32;2.28;;;1.30;99.90;;;;;;5044083;28;20069;-54
2022/04/09 00:04:47;;;;;;;2.70;1.80;;;1.20;99.90;;;;;;5044377;28;20037;-55
2022/04/09 00:08:12;;;;;;;6.65;3.22;;;1.20;99.90;;;;;;5020905;28;20036;-55
2022/04/09 00:11:38;;;;;;;4.40;2.72;;;1.30;99.90;;;;;;5008512;28;20049;-55
2022/04/09 00:15:03;;;;;;;4.68;2.22;;;1.30;99.90;;;;;;5029255;28;20420;-54
2022/04/09 00:18:28;;;;;;;2.70;2.13;;;1.40;99.90;;;;;;5023899;28;20107;-55
2022/04/09 00:21:54;;;;;;;4.22;1.83;;;1.50;99.90;;;;;;5012812;28;20036;-53
2022/04/09 00:24:39;;;;;;;5.30;2.53;;;1.60;99.90;;;;;;5007982;28;20041;-56
2022/04/09 00:27:05;;;;;;;2.63;1.73;;;1.70;99.90;;;;;;5043321;28;20456;-49
2022/04/09 00:29:30;;;;;;;4.70;2.10;;;1.70;99.90;;;;;;5026253;28;20071;-52
2022/04/09 00:31:56;;;;;;;4.72;2.08;;;1.80;99.90;;;;;;5040668;28;20037;-56
2022/04/09 00:34:21;;;;;;;5.28;2.30;;;1.80;99.90;;;;;;5030608;28;20128;-51
2022/04/09 00:36:47;;;;;;;2.42;1.73;;;1.90;99.90;;;;;;5046697;28;20028;-50
2022/04/09 00:39:13;;;;;;;5.10;2.83;;;1.90;99.90;;;;;;5026388;28;20374;-51
2022/04/09 00:41:40;;;;;;;4.25;2.42;;;2.00;99.90;;;;;;5046605;28;20119;-50
2022/04/09 00:44:16;;;;;;;5.53;2.42;;;2.00;99.90;;;;;;5030537;28;20036;-53
2022/04/09 00:46:41;;;;;;;;;;;2.00;99.90;;;;;;5008266;28;20379;-51
2022/04/09 00:49:07;;;;;;;3.03;2.07;;;2.00;99.90;;;;;;5037174;28;19916;-49
2022/04/09 00:51:36;;;;;;;4.88;1.83;;;2.00;99.90;;;;;;5040128;28;20052;-53
2022/04/09 00:54:05;;;;;;;4.38;2.03;;;2.00;99.90;;;;;;5031128;28;20033;-51
2022/04/09 00:56:31;;;;;;;5.65;2.63;;;2.00;99.90;;;;;;5044723;28;20270;-54
2022/04/09 00:59:00;;;;;;;2.88;2.20;;;2.10;99.90;;;;;;5035681;28;20033;-53
2022/04/09 01:01:28;;;;;;;2.63;1.80;;;2.20;99.90;;;;;;5046383;28;20035;-55
2022/04/09 01:03:56;;;;;;;6.22;2.35;;;2.20;99.90;;;;;;5035773;28;20036;-51
2022/04/09 01:06:22;;;;;;;5.50;2.33;;;2.20;99.90;;;;;;5043301;28;20036;-49
2022/04/09 01:08:47;;;;;;;3.35;2.30;;;2.20;99.90;;;;;;5044734;28;20087;-52
2022/04/09 01:11:14;;;;;;;2.35;1.70;;;2.20;99.90;;;;;;5037928;28;20295;-52
2022/04/09 01:13:40;;;;;;;8.15;2.72;;;2.10;99.90;;;;;;5044295;28;20033;-49
2022/04/09 01:16:06;;;;;;;3.00;2.03;;;2.20;99.90;;;;;;5045913;28;20039;-51
2022/04/09 01:18:33;;;;;;;3.55;2.00;;;2.10;99.90;;;;;;5045110;28;20033;-53
2022/04/09 01:21:00;;;;;;;2.15;1.90;;;2.20;99.90;;;;;;5035265;28;20127;-49
2022/04/09 01:23:26;;;;;;;3.30;2.10;;;2.20;99.90;;;;;;5044756;28;20483;-54
2022/04/09 01:25:52;;;;;;;3.55;2.20;;;2.20;99.90;;;;;;5046380;28;20060;-50
2022/04/09 01:28:18;;;;;;;3.25;2.05;;;2.20;99.90;;;;;;5044378;28;20091;-51
2022/04/09 01:30:44;;;;;;;4.97;2.50;;;2.10;99.90;;;;;;5046497;28;20037;-50
2022/04/09 01:33:20;;;;;;;7.07;2.20;;;2.20;99.90;;;;;;5032690;28;20098;-55
2022/04/09 01:35:47;;;;;;;3.92;2.45;;;2.20;99.90;;;;;;5046396;28;20405;-50
2022/04/09 01:38:13;;;;;;;3.67;2.13;;;2.10;99.90;;;;;;5043982;28;20112;-51
2022/04/09 01:40:39;;;;;;;6.97;2.38;;;2.10;99.90;;;;;;5046359;28;20103;-48
2022/04/09 01:43:05;;;;;;;4.40;2.08;;;2.00;99.90;;;;;;5041440;28;20117;-53
2022/04/09 01:45:31;;;;;;;4.43;2.17;;;2.00;99.90;;;;;;5046521;28;20391;-53
2022/04/09 01:47:58;;;;;;;3.72;2.22;;;1.90;99.90;;;;;;5031257;28;20041;-50
2022/04/09 01:50:26;;;;;;;4.10;2.38;;;2.00;99.90;;;;;;5030615;28;20436;-50
2022/04/09 01:52:52;;;;;;;8.50;2.30;;;1.90;99.90;;;;;;5027436;28;20041;-53
2022/04/09 01:55:17;;;;;;;5.82;2.25;;;1.90;99.90;;;;;;5045512;28;20451;-49
2022/04/09 01:57:43;;;;;;;4.53;1.65;;;1.90;99.90;;;;;;5023084;28;20041;-52
2022/04/09 02:00:12;;;;;;;4.03;2.40;;;1.90;99.90;;;;;;5045489;28;20415;-51
2022/04/09 02:02:37;;;;;;;6.90;2.10;;;1.90;99.90;;;;;;5026447;28;20073;-56
2022/04/09 02:05:04;;;;;;;4.25;2.10;;;2.00;99.90;;;;;;5046142;28;20338;-55
2022/04/09 02:07:29;;;;;;;5.53;1.70;;;1.90;99.90;;;;;;5025565;28;20036;-50
2022/04/09 02:09:55;;;;;;;5.57;1.70;;;2.00;99.90;;;;;;5022225;28;20050;-51
2022/04/09 02:12:21;;;;;;;3.85;1.73;;;2.00;99.90;;;;;;5033911;28;20095;-55
2022/04/09 02:14:46;;;;;;;4.55;2.10;;;2.00;99.90;;;;;;5046722;28;20392;-53
2022/04/09 02:17:13;;;;;;;3.88;1.73;;;2.00;99.90;;;;;;5037949;28;20029;-51
2022/04/09 02:19:39;;;;;;;6.95;1.98;;;2.10;99.90;;;;;;5029122;28;20401;-55
2022/04/09 02:22:05;;;;;;;4.78;1.92;;;2.10;99.90;;;;;;5046006;28;20041;-53
2022/04/09 02:24:31;;;;;;;4.07;1.70;;;2.10;99.90;;;;;;5029024;28;20044;-53
2022/04/09 02:26:56;;;;;;;4.15;1.67;;;2.10;99.90;;;;;;5046316;28;20403;-49
2022/04/09 02:29:22;;;;;;;4.97;1.60;;;2.10;99.90;;;;;;5029090;28;20125;-51
2022/04/09 02:31:48;;;;;;;6.88;1.40;;;2.20;99.90;;;;;;5045566;28;20553;-50
2022/04/09 02:34:13;;;;;;;3.72;1.42;;;2.20;99.90;;;;;;5048632;28;20029;-51
2022/04/09 02:36:39;;;;;;;7.70;1.73;;;2.20;99.90;;;;;;5032955;28;20041;-52
2022/04/09 02:39:05;;;;;;;2.13;1.48;;;2.20;99.90;;;;;;5048389;28;20025;-54
2022/04/09 02:41:31;;;;;;;3.00;1.30;;;2.30;99.90;;;;;;5031842;28;20041;-51
2022/04/09 02:43:57;;;;;;;2.50;1.45;;;2.30;99.90;;;;;;5048378;28;20431;-51
2022/04/09 02:46:23;;;;;;;5.10;1.42;;;2.30;99.90;;;;;;5030722;28;20086;-52
2022/04/09 02:48:48;;;;;;;7.93;1.40;;;2.20;99.90;;;;;;5034480;28;20689;-51
2022/04/09 02:51:14;;;;;;;4.65;1.83;;;2.20;99.90;;;;;;5045041;28;20112;-51
2022/04/09 02:53:39;;;;;;;4.60;1.90;;;2.20;99.90;;;;;;5052021;28;20033;-51
2022/04/09 02:56:05;;;;;;;4.68;1.73;;;2.20;99.90;;;;;;5031685;28;20069;-52
2022/04/09 02:58:31;;;;;;;3.35;1.50;;;2.20;99.90;;;;;;5051775;28;20040;-53
2022/04/09 03:00:56;;;;;;;3.13;1.40;;;2.20;99.90;;;;;;5030593;28;20060;-53
2022/04/09 03:03:22;;;;;;;6.68;1.50;;;2.20;99.90;;;;;;5051647;28;20083;-48
2022/04/09 03:05:48;;;;;;;5.15;1.33;;;2.10;99.90;;;;;;5032021;28;20113;-51
2022/04/09 03:08:14;;;;;;;2.88;1.40;;;2.10;99.90;;;;;;5030201;28;20128;-54
2022/04/09 03:10:39;;;;;;;6.00;1.80;;;2.10;99.90;;;;;;5050829;28;20025;-52
2022/04/09 03:13:05;;;;;;;6.53;1.77;;;2.00;99.90;;;;;;5030185;28;20490;-51
2022/04/09 03:15:30;;;;;;;4.13;1.70;;;2.00;99.90;;;;;;5050651;28;20033;-54
2022/04/09 03:17:56;;;;;;;5.55;1.50;;;2.00;99.90;;;;;;5030345;28;20041;-55
2022/04/09 03:20:22;;;;;;;3.75;1.98;;;1.90;99.90;;;;;;5050534;28;20497;-51
2022/04/09 03:22:48;;;;;;;5.78;1.80;;;1.90;99.90;;;;;;5030087;28;20029;-53
2022/04/09 03:25:14;;;;;;;7.03;2.10;;;1.80;99.90;;;;;;5050746;28;20408;-54
2022/04/09 03:27:39;;;;;;;2.40;1.50;;;1.80;99.90;;;;;;5030101;28;20027;-49
2022/04/09 03:30:06;;;;;;;4.95;2.08;;;1.80;99.90;;;;;;5050342;28;20417;-54
2022/04/09 03:32:32;;;;;;;7.90;1.50;;;1.70;99.90;;;;;;5029823;28;20037;-54
2022/04/09 03:34:57;;;;;;;4.65;1.85;;;1.70;99.90;;;;;;5050451;28;20087;-49
2022/04/09 03:37:23;;;;;;;5.10;1.70;;;1.60;99.90;;;;;;5029778;28;20091;-53
2022/04/09 03:39:49;;;;;;;5.10;2.08;;;1.60;99.90;;;;;;5050293;28;20047;-51
2022/04/09 03:42:15;;;;;;;4.55;1.67;;;1.60;99.90;;;;;;5040572;28;20036;-54
2022/04/09 03:44:41;;;;;;;4.38;2.05;;;1.60;99.90;;;;;;5031551;28;20284;-50
2022/04/09 03:47:06;;;;;;;4.97;2.08;;;1.50;99.90;;;;;;5048144;28;20033;-54
2022/04/09 03:49:33;;;;;;;3.75;2.13;;;1.50;99.90;;;;;;5031440;28;20042;-51
2022/04/09 03:51:59;;;;;;;4.88;2.05;;;1.50;99.90;;;;;;5042350;28;20039;-55
2022/04/09 03:54:25;;;;;;;2.75;1.67;;;1.50;99.90;;;;;;5031354;28;20393;-50
2022/04/09 03:56:51;;;;;;;8.20;2.20;;;1.50;99.90;;;;;;5048229;28;20041;-53
2022/04/09 03:59:17;;;;;;;6.22;2.20;;;1.40;99.90;;;;;;5050725;28;20143;-49
2022/04/09 04:01:46;;;;;;;2.97;1.80;;;1.30;99.90;;;;;;5034694;28;20029;-55
2022/04/09 04:04:11;;;;;;;7.72;1.90;;;1.30;99.90;;;;;;5050674;28;20030;-54
2022/04/09 04:06:37;;;;;;;8.57;2.65;;;1.30;99.90;;;;;;5034871;28;20059;-48
2022/04/09 04:09:03;;;;;;;2.35;1.48;;;1.30;99.90;;;;;;5050696;28;20036;-52
2022/04/09 04:11:29;;;;;;;4.82;1.88;;;1.30;99.90;;;;;;5033630;28;20094;-54
2022/04/09 04:13:55;;;;;;;5.13;2.35;;;1.30;99.90;;;;;;5050525;28;20039;-54
2022/04/09 04:16:21;;;;;;;5.00;2.40;;;1.20;99.90;;;;;;5032163;28;20500;-51
2022/04/09 04:18:46;;;;;;;4.80;1.90;;;1.20;99.90;;;;;;5050668;28;20036;-48
2022/04/09 04:21:12;;;;;;;4.50;2.30;;;1.30;99.90;;;;;;5031372;28;20055;-49
2022/04/09 04:23:37;;;;;;;4.03;1.77;;;1.40;99.90;;;;;;5050266;28;20028;-49
2022/04/09 04:26:03;;;;;;;6.93;1.88;;;1.50;99.90;;;;;;5029220;28;20037;-49
2022/04/09 04:28:29;;;;;;;4.82;1.60;;;1.60;99.90;;;;;;5049745;28;20531;-52
2022/04/09 04:30:55;;;;;;;3.42;1.80;;;1.70;99.90;;;;;;5029169;28;20520;-50
2022/04/09 04:33:21;;;;;;;5.88;2.30;;;1.70;99.90;;;;;;5049611;28;20048;-51
2022/04/09 04:35:47;;;;;;;3.53;2.13;;;1.70;99.90;;;;;;5029040;28;20120;-50
2022/04/09 04:38:13;;;;;;;3.88;2.05;;;1.80;99.90;;;;;;5049666;28;20063;-51
2022/04/09 04:40:39;;;;;;;5.32;2.45;;;1.70;99.90;;;;;;5028943;28;20041;-53
2022/04/09 04:43:05;;;;;;;8.90;2.53;;;1.70;99.90;;;;;;5049428;28;20033;-50
2022/04/09 04:45:31;;;;;;;5.28;2.10;;;1.80;99.90;;;;;;5028694;28;20034;-52
2022/04/09 04:47:57;;;;;;;5.55;2.25;;;1.90;99.90;;;;;;5039624;28;20045;-50
2022/04/09 04:50:24;;;;;;;8.23;2.55;;;2.00;99.90;;;;;;5028285;28;20064;-53
2022/04/09 04:52:49;;;;;;;5.70;2.50;;;2.10;99.90;;;;;;5049263;28;20618;-55
2022/04/09 04:55:17;;;;;;;9.02;3.00;;;2.30;99.90;;;;;;5028725;28;20025;-52
2022/04/09 04:57:43;;;;;;;4.38;2.30;;;2.40;99.90;;;;;;5049591;28;20028;-53
2022/04/09 05:00:10;;;;;;;7.57;2.33;;;2.50;99.90;;;;;;5028331;28;20163;-52
2022/04/09 05:02:35;;;;;;;5.05;2.65;;;2.70;99.90;;;;;;5049225;28;20071;-49
2022/04/09 05:05:01;;;;;;;8.60;2.97;;;2.80;99.90;;;;;;5028466;28;20465;-55
2022/04/09 05:07:40;;;;;;;4.60;3.22;;;3.00;99.90;;;;;;5029960;28;20032;-51
2022/04/09 05:10:13;;;;;;;4.32;2.33;;;3.10;99.90;;;;;;5003615;28;20036;-54
2022/04/09 05:12:40;;;;;;;6.22;2.92;;;3.60;99.90;;;;;;5009817;28;20042;-54
2022/04/09 05:15:07;;;;;;;3.28;2.17;;;4.60;99.90;;;;;;5046537;28;20032;-51
2022/04/09 05:17:33;;;;;;;7.97;2.35;;;4.80;99.90;;;;;;5029879;28;20034;-52
2022/04/09 05:20:01;;;;;;;3.53;2.13;;;4.90;99.90;;;;;;5039728;28;20481;-54
2022/04/09 05:22:27;;;;;;;4.97;2.13;;;5.40;99.90;;;;;;5029789;28;20167;-52
2022/04/09 05:24:53;;;;;;;3.47;2.05;;;5.40;99.90;;;;;;5046853;28;20028;-55
2022/04/09 05:27:19;;;;;;;3.25;2.00;;;5.40;99.90;;;;;;5049631;28;20021;-50
2022/04/09 05:29:44;;;;;;;7.05;2.13;;;5.40;99.90;;;;;;5028088;28;20037;-55
2022/04/09 05:32:10;;;;;;;10.80;2.58;;;5.40;99.90;;;;;;5029471;28;20037;-55
2022/04/09 05:34:35;;;;;;;3.80;2.10;;;5.40;99.90;;;;;;5042654;28;20049;-53
2022/04/09 05:37:01;;;;;;;4.70;2.22;;;5.70;99.90;;;;;;5029557;28;20104;-56
2022/04/09 05:39:27;;;;;;;4.95;1.85;;;6.40;99.90;;;;;;5043918;28;20025;-53
2022/04/09 05:41:52;;;;;;;8.23;2.13;;;7.20;99.90;;;;;;5029444;28;20105;-55
2022/04/09 05:44:18;;;;;;;4.93;2.05;;;7.90;94.80;;;;;;5044821;28;20029;-54
2022/04/09 05:46:43;;;;;;;8.20;2.55;;;8.30;93.50;;;;;;5032251;28;20488;-51
2022/04/09 05:49:09;;;;;;;4.43;1.75;;;9.50;86.70;;;;;;5043284;28;20043;-54
2022/04/09 05:51:35;;;;;;;2.28;1.58;;;10.70;74.30;;;;;;5029380;28;20033;-55
2022/04/09 05:54:01;;;;;;;4.68;1.52;;;10.70;71.60;;;;;;5048704;28;20154;-54
2022/04/09 05:56:26;;;;;;;4.78;1.85;;;12.60;64.40;;;;;;5028145;28;20117;-62
2022/04/09 05:58:52;;;;;;;5.38;1.60;;;14.50;50.20;;;;;;5048365;28;20116;-63
2022/04/09 06:01:17;;;;;;;6.15;1.85;;;14.60;44.40;;;;;;5027899;28;20030;-61
2022/04/09 06:03:43;;;;;;;3.10;1.48;;;14.60;42.90;;;;;;5031152;28;20029;-60
2022/04/09 06:06:11;;;;;;;5.38;1.73;;;14.80;40.80;;;;;;5027861;28;20103;-62
2022/04/09 06:08:38;;;;;;;3.88;1.63;;;13.40;45.20;;;;;;5048245;28;20187;-63
2022/04/09 06:11:05;;;;;;;6.65;1.58;;;11.90;50.00;;;;;;5027516;28;20116;-63
2022/04/09 06:13:30;;;;;;;4.78;1.58;;;12.10;53.40;;;;;;5048258;28;20037;-63
2022/04/09 06:15:56;;;;;;;5.03;1.30;;;12.20;54.30;;;;;;5027788;28;20516;-63
2022/04/09 06:18:21;;;;;;;6.03;1.65;;;12.20;50.70;;;;;;5048261;28;20029;-63
2022/04/09 06:20:47;;;;;;;4.05;1.42;;;12.70;52.50;;;;;;5027690;28;20026;-63
2022/04/09 06:23:13;;;;;;;6.82;1.70;;;15.70;37.90;;;;;;5048186;28;20505;-62
2022/04/09 06:25:38;;;;;;;3.97;1.55;;;16.10;33.40;;;;;;5030212;28;20108;-55
2022/04/09 06:28:04;;;;;;;3.78;1.55;;;17.70;31.20;;;;;;5052136;28;20584;-53
2022/04/09 06:30:30;;;;;;;4.85;1.38;;;16.20;31.10;;;;;;5031368;28;20040;-55
2022/04/09 06:32:55;;;;;;;5.90;1.70;;;15.70;31.80;;;;;;5051855;28;20124;-54
2022/04/09 06:35:22;;;;;;;5.28;1.85;;;16.30;29.00;;;;;;5031249;28;20522;-55
2022/04/09 06:37:47;;;;;;;4.78;1.60;;;15.10;32.50;;;;;;5033962;28;20083;-54
2022/04/09 06:40:13;;;;;;;5.90;1.67;;;13.80;30.00;;;;;;5051612;28;20195;-56
2022/04/09 06:42:40;;;;;;;3.75;1.67;;;14.10;37.20;;;;;;5031512;28;20511;-55
2022/04/09 06:45:08;;;;;;;5.10;1.73;;;12.90;38.50;;;;;;5051766;28;20060;-56
2022/04/09 06:47:36;;;;;;;8.60;1.67;;;12.00;41.70;;;;;;5033576;28;20037;-54
2022/04/09 06:50:08;;;;;;;3.00;1.30;;;11.90;42.50;;;;;;5052662;28;20028;-52
2022/04/09 06:52:34;;;;;;;6.57;1.65;;;11.20;47.30;;;;;;5023183;28;20053;-53
2022/04/09 06:54:59;;;;;;;4.95;1.33;;;11.20;45.30;;;;;;5051795;28;20496;-55
2022/04/09 06:57:25;;;;;;;5.40;1.67;;;10.80;43.90;;;;;;5031254;28;20055;-57
2022/04/09 06:59:50;;;;;;;6.35;2.03;;;13.60;41.10;;;;;;5051502;28;20050;-53
2022/04/09 07:02:16;;;;;;;5.05;1.95;;;15.10;31.90;;;;;;5030953;28;20056;-55
2022/04/09 07:04:41;;;;;;;3.70;1.48;;;16.80;27.90;;;;;;5051319;28;20112;-57
2022/04/09 07:07:07;;;;;;;4.72;1.45;;;18.00;25.50;;;;;;5030944;28;20094;-55
2022/04/09 07:09:32;;;;;;;7.25;1.75;;;19.60;22.30;;;;;;5051436;28;20064;-57
2022/04/09 07:11:58;;;;;;;6.35;2.30;;;21.70;19.10;;;;;;5030804;28;20049;-56
2022/04/09 07:14:23;;;;;;;5.90;2.03;;;22.80;16.30;;;;;;5051326;28;20493;-54
2022/04/09 07:16:49;;;;;;;3.35;1.33;;;23.50;13.90;;;;;;5030520;28;20017;-54
2022/04/09 07:19:14;;;;;;;6.07;1.73;;;22.30;15.80;;;;;;5031952;28;20022;-56
2022/04/09 07:21:40;;;;;;;11.90;1.83;;;21.10;16.70;;;;;;5043930;28;20521;-51
2022/04/09 07:24:06;;;;;;;4.13;1.55;;;21.70;15.60;;;;;;5031711;28;20026;-56
2022/04/09 07:27:11;;;;;;;4.13;1.50;;;21.50;15.20;;;;;;5044963;28;20051;-53
2022/04/09 07:30:36;;;;;;;7.30;2.00;;;20.30;13.50;;;;;;5050692;28;20082;-52
2022/04/09 07:34:02;;;;;;;3.13;1.58;;;19.10;11.20;;;;;;5043262;28;20133;-54
2022/04/09 07:37:27;;;;;;;6.25;2.10;;;17.90;14.90;;;;;;5031846;28;20042;-55
2022/04/09 07:40:54;;;;;;;6.03;1.83;;;17.00;15.70;;;;;;5040068;28;20032;-53
2022/04/09 07:44:18;;;;;;;8.73;1.80;;;16.50;16.10;;;;;;5045209;28;20044;-52
2022/04/09 07:47:43;;;;;;;3.45;1.48;;;17.30;16.00;;;;;;5028351;28;20651;-53
2022/04/09 07:51:09;;;;;;;4.95;1.85;;;16.60;17.00;;;;;;5039455;28;20500;-52
2022/04/09 07:54:34;;;;;;;7.18;1.80;;;16.40;17.00;;;;;;5045710;28;20044;-55
2022/04/09 07:58:01;;;;;;;6.45;1.80;;;15.90;16.00;;;;;;5039756;28;20098;-53
2022/04/09 08:01:25;;;;;;;9.27;2.55;;;16.70;15.00;;;;;;5049007;28;20048;-55
2022/04/09 08:04:50;;;;;;;6.70;1.80;;;17.80;14.00;;;;;;5031761;28;20143;-55
2022/04/09 08:08:16;;;;;;;6.15;2.08;;;16.60;16.20;;;;;;5045214;28;20033;-54
2022/04/09 08:11:22;;;;;;;5.65;1.73;;;16.50;16.70;;;;;;5044694;28;20045;-54
2022/04/09 08:14:30;;;;;;;2.97;1.50;;;19.00;13.20;;;;;;4993579;28;20030;-53
2022/04/09 08:17:57;;;;;;;6.05;1.75;;;18.20;14.20;;;;;;5029771;28;20040;-52
2022/04/09 08:21:21;;;;;;;8.60;1.77;;;21.10;9.60;;;;;;5036152;28;20034;-53
2022/04/09 08:24:46;;;;;;;9.43;1.65;;;19.00;10.10;;;;;;5024108;28;20038;-54
2022/04/09 08:28:12;;;;;;;6.18;2.08;;;17.80;11.60;;;;;;5047659;28;20036;-54
2022/04/09 08:31:37;;;;;;;5.43;1.45;;;19.60;9.70;;;;;;5027153;28;20060;-53
2022/04/09 08:35:02;;;;;;;6.43;1.60;;;19.30;9.40;;;;;;5036013;28;20037;-56
2022/04/09 08:38:31;;;;;;;3.85;1.55;;;20.00;10.10;;;;;;5019171;28;20041;-55
2022/04/09 08:41:58;;;;;;;4.00;1.60;;;19.80;8.70;;;;;;5043280;28;20032;-56
2022/04/09 08:45:21;;;;;;;7.25;1.98;;;18.90;8.30;;;;;;5027092;28;20087;-56
2022/04/09 08:48:47;;;;;;;8.77;2.10;;;18.90;9.00;;;;;;5026346;28;20420;-56
2022/04/09 08:52:12;;;;;;;5.70;1.77;;;20.40;7.80;;;;;;5042902;28;20107;-55
2022/04/09 08:55:38;;;;;;;10.02;2.33;;;21.20;6.90;;;;;;5025304;28;20041;-54
2022/04/09 08:59:03;;;;;;;5.03;1.80;;;21.90;5.20;;;;;;5023647;28;20691;-56
2022/04/09 09:02:31;;;;;;;8.07;1.70;;;22.80;3.40;;;;;;5037380;28;20047;-55
2022/04/09 09:05:34;;;;;;;3.90;1.73;;;22.40;2.30;;;;;;5021958;28;20669;-52
2022/04/09 09:08:59;;;;;;;4.35;1.40;;;20.10;4.50;;;;;;5009296;28;20038;-54
2022/04/09 09:12:25;;;;;;;5.78;1.52;;;19.20;7.30;;;;;;5042859;28;20246;-51
2022/04/09 09:15:53;;;;;;;6.40;2.60;;;18.10;7.80;;;;;;5022996;28;20037;-53
2022/04/09 09:19:22;;;;;;;5.75;2.13;;;16.40;9.40;;;;;;5040098;28;20577;-56
2022/04/09 09:22:56;;;;;;;7.63;2.22;;;16.10;9.50;;;;;;5041894;28;20045;-56
2022/04/09 09:26:28;;;;;;;5.28;2.10;;;16.40;9.10;;;;;;5023495;28;20041;-55
2022/04/09 09:30:02;;;;;;;7.22;1.77;;;16.40;8.30;;;;;;5029683;28;20037;-59
2022/04/09 09:33:28;;;;;;;4.78;1.90;;;17.40;6.90;;;;;;5031174;28;20045;-52
2022/04/09 09:36:53;;;;;;;8.90;2.50;;;19.40;5.50;;;;;;5014486;28;20037;-53
2022/04/09 09:40:18;;;;;;;6.10;2.13;;;18.60;6.20;;;;;;5035392;28;20049;-57
2022/04/09 09:43:44;;;;;;;3.38;1.90;;;20.10;3.70;;;;;;5023197;28;20475;-56
2022/04/09 09:47:09;;;;;;;4.40;1.40;;;21.70;2.70;;;;;;5021112;28;20065;-57
2022/04/09 09:50:34;;;;;;;2.92;1.48;;;20.80;2.90;;;;;;5008029;28;20120;-58
2022/04/09 09:54:13;;;;;;;5.28;1.65;;;19.10;3.00;;;;;;5026162;28;20046;-57
2022/04/09 09:57:41;;;;;;;3.63;1.38;;;18.90;4.30;;;;;;5031899;28;20065;-62
2022/04/09 10:00:46;;;;;;;;;;;19.40;4.50;;;;;;5047502;28;20127;-62
2022/04/09 10:04:14;;;;;;;5.10;1.30;;;18.50;5.10;;;;;;5026618;28;19909;-62
2022/04/09 10:07:19;;;;;;;;;;;19.10;3.60;;;;;;5024542;28;20394;-62
2022/04/09 10:10:51;;;;;;;34.10;4.70;;;17.70;4.00;;;;;;5031981;28;20353;-60
2022/04/09 10:14:17;;;;;;;18.52;3.53;;;18.90;4.40;;;;;;5031244;28;20650;-60
2022/04/09 10:17:41;;;;;;;27.60;4.32;;;17.10;5.50;;;;;;5031440;28;20057;-60
2022/04/09 10:21:08;;;;;;;21.98;3.55;;;15.60;7.50;;;;;;5040469;28;20029;-61
2022/04/09 10:24:32;;;;;;;4.43;1.42;;;14.90;9.20;;;;;;5045716;28;20036;-60
2022/04/09 10:28:16;;;;;;;41.25;5.53;;;14.50;10.30;;;;;;5031908;28;20077;-60
2022/04/09 10:31:21;;;;;;;23.92;4.03;;;13.90;10.30;;;;;;5040442;28;20040;-60
2022/04/09 10:34:47;;;;;;;18.80;3.05;;;13.60;11.70;;;;;;5011804;28;20037;-60
2022/04/09 10:38:16;;;;;;;5.68;1.75;;;13.50;11.60;;;;;;5020905;28;20068;-61
2022/04/09 10:41:04;;;;;;;14.98;2.60;;;13.20;11.80;;;;;;5034423;28;20037;-60
2022/04/09 10:44:29;;;;;;;12.10;2.55;;;13.00;12.50;;;;;;5011432;28;20072;-60
2022/04/09 10:47:54;;;;;;;11.07;2.60;;;12.60;13.50;;;;;;5031173;28;20060;-61
2022/04/09 10:50:59;;;;;;;3.03;1.10;;;12.70;14.00;;;;;;5033272;28;20073;-61
2022/04/09 10:54:24;;;;;;;3.55;1.42;;;12.80;13.20;;;;;;5045078;28;20562;-61
2022/04/09 10:57:52;;;;;;;7.20;1.20;;;12.90;13.00;;;;;;5032568;28;20112;-62
2022/04/09 11:01:15;;;;;;;4.82;1.33;;;12.60;13.50;;;;;;5036331;28;20074;-60
2022/04/09 11:04:27;;;;;;;3.90;1.42;;;12.50;14.00;;;;;;5045069;28;20044;-62
2022/04/09 11:08:10;;;;;;;4.05;1.10;;;12.60;13.60;;;;;;5022462;28;20116;-62
2022/04/09 11:11:37;;;;;;;2.95;1.33;;;12.90;14.10;;;;;;5039457;28;20052;-60
2022/04/09 11:15:04;;;;;;;2.17;1.02;;;12.90;12.90;;;;;;5031844;28;20041;-62
2022/04/09 11:18:29;;;;;;;4.35;1.55;;;13.10;13.20;;;;;;5045173;28;20040;-62
2022/04/09 11:21:54;;;;;;;3.72;1.23;;;13.00;13.80;;;;;;5046636;28;20128;-61
2022/04/09 11:25:20;;;;;;;3.08;1.30;;;12.70;14.30;;;;;;5024311;28;20045;-61
2022/04/09 11:28:31;;;;;;;3.47;1.45;;;12.80;14.70;;;;;;5037198;28;20053;-60
2022/04/09 11:32:08;;;;;;;3.45;1.30;;;13.00;14.10;;;;;;5050010;28;20350;-61
2022/04/09 11:35:34;;;;;;;6.22;1.52;;;12.80;14.20;;;;;;5029778;28;20034;-61
2022/04/09 11:38:59;;;;;;;4.50;1.60;;;12.50;15.40;;;;;;5044327;28;20033;-62
2022/04/09 11:42:28;;;;;;;2.20;1.10;;;12.50;15.10;;;;;;5032297;28;20068;-62
2022/04/09 11:45:39;;;;;;;;;;;12.60;14.60;;;;;;5043782;28;20040;-61
2022/04/09 11:49:05;;;;;;;4.97;1.00;;;12.60;14.50;;;;;;5021117;28;20459;-60
2022/04/09 11:52:48;;;;;;;5.97;1.52;;;12.20;14.70;;;;;;5031287;28;20041;-62
2022/04/09 11:56:19;;;;;;;2.42;0.70;;;12.10;15.90;;;;;;5029977;28;20037;-62
2022/04/09 11:59:45;;;;;;;2.65;0.95;;;12.30;15.00;;;;;;5046260;28;20037;-61
2022/04/09 12:03:10;;;;;;;3.50;1.00;;;12.30;15.00;;;;;;5045992;28;20119;-60
2022/04/09 12:06:35;;;;;;;4.68;1.13;;;12.00;15.50;;;;;;5040975;28;20510;-62
2022/04/09 12:10:01;;;;;;;2.60;0.65;;;11.90;15.80;;;;;;5039424;28;20041;-61
2022/04/09 12:13:26;;;;;;;2.80;1.20;;;12.10;15.70;;;;;;5035405;28;20277;-61
2022/04/09 12:16:58;;;;;;;4.50;1.40;;;12.50;15.40;;;;;;5045192;28;20355;-62
2022/04/09 12:20:22;;;;;;;4.25;1.10;;;12.80;14.00;;;;;;5025183;28;20033;-62
2022/04/09 12:23:47;;;;;;;2.90;1.10;;;12.70;13.80;;;;;;5041884;28;20051;-62
2022/04/09 12:26:35;;;;;;;2.55;0.65;;;12.50;14.50;;;;;;5030917;28;20508;-56
2022/04/09 12:29:07;;;;;;;1.58;0.82;;;12.40;15.30;;;;;;5037604;28;20333;-52
2022/04/09 12:31:33;;;;;;;2.33;0.65;;;12.60;14.90;;;;;;5043749;28;20535;-52
2022/04/09 12:34:00;;;;;;;1.60;0.70;;;12.60;15.00;;;;;;5046710;28;20021;-50
2022/04/09 12:36:26;;;;;;;1.75;0.70;;;12.50;14.90;;;;;;5044386;28;20326;-54
2022/04/09 12:38:51;;;;;;;3.17;1.02;;;12.40;15.20;;;;;;5046784;28;20520;-53
2022/04/09 12:41:17;;;;;;;3.65;0.60;;;12.40;15.60;;;;;;5044532;28;20127;-56
2022/04/09 12:43:43;;;;;;;1.75;0.93;;;12.20;16.10;;;;;;5046073;28;20128;-50
2022/04/09 12:46:13;;;;;;;2.13;0.70;;;12.00;16.40;;;;;;5044361;28;20083;-57
2022/04/09 12:48:42;;;;;;;4.03;1.17;;;11.80;17.10;;;;;;5040154;28;20043;-51
2022/04/09 12:51:09;;;;;;;1.88;0.80;;;11.80;17.00;;;;;;5044269;28;20049;-49
2022/04/09 12:53:34;;;;;;;1.08;0.68;;;12.20;17.40;;;;;;5046197;28;20040;-54
2022/04/09 12:56:04;;;;;;;1.20;0.60;;;12.40;16.30;;;;;;5043386;28;20025;-51
2022/04/09 12:58:31;;;;;;;3.58;0.90;;;12.60;16.10;;;;;;5046194;28;20116;-48
2022/04/09 13:00:56;;;;;;;4.85;1.25;;;12.70;15.90;;;;;;5043927;28;20594;-53
2022/04/09 13:03:22;;;;;;;1.20;0.80;;;12.50;16.00;;;;;;5046496;28;20037;-50
2022/04/09 13:05:47;;;;;;;2.85;1.10;;;12.40;16.60;;;;;;5046038;28;20524;-50
2022/04/09 13:08:13;;;;;;;2.83;1.27;;;12.30;16.70;;;;;;5032018;28;20127;-53
2022/04/09 13:10:38;;;;;;;1.92;1.13;;;12.30;17.00;;;;;;5046081;28;20025;-48
2022/04/09 13:13:04;;;;;;;1.63;1.00;;;12.10;17.60;;;;;;5031195;28;20067;-52
2022/04/09 13:15:31;;;;;;;3.67;1.02;;;12.00;19.70;;;;;;5046924;28;20381;-49
2022/04/09 13:17:57;;;;;;;7.55;1.05;;;12.30;19.20;;;;;;5025569;28;20030;-65
2022/04/09 13:20:23;;;;;;;2.83;1.15;;;12.50;18.80;;;;;;5029064;28;20405;-67
2022/04/09 13:22:48;;;;;;;1.13;0.40;;;12.50;17.50;;;;;;5026213;28;20611;-70
2022/04/09 13:25:17;;;;;;;2.13;0.80;;;12.40;17.50;;;;;;5047625;28;20116;-69
2022/04/09 13:27:44;;;;;;;1.00;0.65;;;12.40;17.80;;;;;;5026764;28;20144;-69
2022/04/09 13:30:11;;;;;;;2.13;0.70;;;12.60;17.70;;;;;;5047765;28;20040;-66
2022/04/09 13:32:37;;;;;;;3.53;1.13;;;12.60;18.20;;;;;;5026654;28;20041;-66
2022/04/09 13:35:03;;;;;;;5.63;0.90;;;12.60;19.30;;;;;;5038163;28;20060;-66
2022/04/09 13:37:29;;;;;;;2.90;0.80;;;12.30;19.60;;;;;;5031750;28;20041;-66
2022/04/09 13:39:55;;;;;;;4.15;0.50;;;12.10;19.90;;;;;;5046881;28;20443;-66
2022/04/09 13:42:20;;;;;;;1.63;0.50;;;11.80;20.40;;;;;;5026829;28;20025;-66
2022/04/09 13:44:46;;;;;;;1.42;0.40;;;11.50;20.60;;;;;;5046941;28;20025;-66
2022/04/09 13:47:12;;;;;;;0.80;0.60;;;11.20;20.90;;;;;;5029974;28;20462;-65
2022/04/09 13:49:39;;;;;;;1.52;0.70;;;11.00;21.60;;;;;;5028415;28;20192;-66
2022/04/09 13:52:05;;;;;;;1.17;0.80;;;10.80;21.90;;;;;;5045122;28;20471;-67
2022/04/09 13:54:31;;;;;;;3.17;0.63;;;10.60;22.80;;;;;;5017700;28;20091;-66
2022/04/09 13:56:57;;;;;;;1.40;0.80;;;10.50;23.90;;;;;;5042142;28;20036;-66
2022/04/09 13:59:22;;;;;;;1.65;1.27;;;10.50;24.10;;;;;;5043201;28;20032;-66
2022/04/09 14:01:48;;;;;;;0.80;0.60;;;10.30;23.20;;;;;;5043358;28;20280;-66
2022/04/09 14:04:13;;;;;;;0.98;0.47;;;10.20;24.10;;;;;;5043309;28;20044;-66
2022/04/09 14:06:39;;;;;;;0.80;0.47;;;10.10;24.20;;;;;;5045042;28;20108;-67
2022/04/09 14:09:05;;;;;;;1.38;0.50;;;10.00;24.90;;;;;;5042911;28;20393;-66
2022/04/09 14:11:30;;;;;;;1.75;0.55;;;10.00;24.90;;;;;;5045482;28;20033;-66
2022/04/09 14:13:57;;;;;;;1.75;0.50;;;10.10;24.60;;;;;;5043311;28;20041;-66
2022/04/09 14:16:23;;;;;;;1.30;0.63;;;10.30;26.10;;;;;;5045335;28;20021;-67
2022/04/09 14:18:48;;;;;;;1.20;0.73;;;10.40;24.60;;;;;;5042769;28;20566;-66